createdAt,value
2022-08-14T00:02:04.522Z,2.60
2022-08-14T00:04:42.067Z,3.00
2022-08-14T00:07:14.061Z,2.85
2022-08-14T00:09:55.614Z,2.88
2022-08-14T00:12:33.928Z,2.60
2022-08-14T00:15:43.687Z,2.63
2022-08-14T00:18:30.213Z,2.58
2022-08-14T00:21:01.522Z,2.70
2022-08-14T00:23:30.897Z,2.53
2022-08-14T00:26:05.605Z,2.35
2022-08-14T00:28:36.824Z,3.03
2022-08-14T00:31:06.506Z,2.88
2022-08-14T00:33:51.009Z,2.65
2022-08-14T00:36:37.543Z,2.72
2022-08-14T00:39:18.125Z,2.42
2022-08-14T00:41:47.660Z,2.85
2022-08-14T00:44:15.271Z,2.20
2022-08-14T00:46:54.132Z,2.65
2022-08-14T00:49:26.085Z,2.53
2022-08-14T00:51:53.708Z,3.05
2022-08-14T00:54:21.700Z,2.70
2022-08-14T00:56:55.172Z,2.58
2022-08-14T00:59:24.786Z,2.80
2022-08-14T01:01:54.400Z,2.63
2022-08-14T01:04:38.101Z,2.70
2022-08-14T01:07:11.444Z,3.05
2022-08-14T01:09:41.733Z,2.63
2022-08-14T01:12:09.333Z,2.78
2022-08-14T01:14:38.069Z,2.60
2022-08-14T01:17:08.905Z,2.90
2022-08-14T01:19:54.470Z,2.60
2022-08-14T01:22:21.381Z,2.55
2022-08-14T01:24:54.299Z,2.42
2022-08-14T01:27:24.135Z,2.72
2022-08-14T01:30:01.331Z,3.10
2022-08-14T01:32:37.490Z,2.38
2022-08-14T01:35:20.774Z,2.90
2022-08-14T01:37:57.811Z,2.72
2022-08-14T01:40:33.285Z,2.42
2022-08-14T01:43:15.785Z,2.60
2022-08-14T01:45:48.905Z,2.53
2022-08-14T01:48:25.637Z,2.53
2022-08-14T01:50:52.561Z,3.30
2022-08-14T01:53:20.736Z,2.90
2022-08-14T01:55:51.559Z,2.80
2022-08-14T01:58:23.474Z,3.40
2022-08-14T02:00:58.486Z,3.20
2022-08-14T02:03:31.257Z,2.80
2022-08-14T02:06:00.057Z,3.22
2022-08-14T02:08:35.217Z,2.88
2022-08-14T02:11:21.890Z,3.08
2022-08-14T02:13:53.540Z,3.00
2022-08-14T02:16:26.400Z,3.40
2022-08-14T02:18:56.292Z,3.00
2022-08-14T02:21:26.916Z,3.05
2022-08-14T02:23:55.369Z,3.08
2022-08-14T02:26:29.761Z,3.50
2022-08-14T02:29:25.340Z,3.47
2022-08-14T02:32:30.111Z,3.22
2022-08-14T02:35:00.662Z,3.92
2022-08-14T02:37:47.292Z,3.38
2022-08-14T02:40:15.613Z,3.25
2022-08-14T02:42:55.024Z,3.30
2022-08-14T02:45:38.642Z,3.38
2022-08-14T02:49:04.605Z,3.75
2022-08-14T02:51:00.556Z,4.07
2022-08-14T02:53:33.249Z,3.80
2022-08-14T02:56:03.218Z,4.60
2022-08-14T02:58:50.566Z,4.63
2022-08-14T03:01:24.197Z,4.95
2022-08-14T03:03:59.542Z,5.05
2022-08-14T03:06:35.191Z,5.03
2022-08-14T03:09:13.389Z,5.50
2022-08-14T03:11:44.704Z,5.05
2022-08-14T03:14:15.518Z,5.65
2022-08-14T03:16:49.281Z,5.70
2022-08-14T03:19:19.734Z,5.75
2022-08-14T03:21:47.155Z,5.40
2022-08-14T03:24:23.300Z,5.60
2022-08-14T03:26:57.405Z,5.30
2022-08-14T03:29:26.518Z,5.70
2022-08-14T03:31:53.924Z,6.60
2022-08-14T03:34:24.675Z,6.90
2022-08-14T03:37:37.553Z,6.78
2022-08-14T03:40:00.373Z,6.03
2022-08-14T03:42:31.114Z,6.97
2022-08-14T03:45:25.932Z,7.20
2022-08-14T03:47:58.909Z,8.18
2022-08-14T03:53:02.994Z,7.32
2022-08-14T03:55:30.974Z,7.45
2022-08-14T03:58:00.364Z,7.38
2022-08-14T04:00:42.995Z,7.72
2022-08-14T04:03:12.487Z,7.82
2022-08-14T04:05:48.467Z,8.13
2022-08-14T04:08:29.354Z,7.70
2022-08-14T04:11:02.044Z,8.65
2022-08-14T04:13:35.400Z,8.65
2022-08-14T04:16:10.051Z,8.05
2022-08-14T04:18:45.849Z,9.07
2022-08-14T04:23:44.237Z,9.02
2022-08-14T04:26:15.065Z,8.88
2022-08-14T04:29:14.289Z,9.32
2022-08-14T04:33:02.971Z,9.25
2022-08-14T04:34:29.897Z,9.80
2022-08-14T04:37:17.494Z,9.68
2022-08-14T04:40:08.789Z,9.40
2022-08-14T04:42:54.683Z,10.43
2022-08-14T04:45:23.953Z,10.30
2022-08-14T04:48:12.754Z,10.55
2022-08-14T04:50:53.781Z,11.45
2022-08-14T04:53:35.535Z,11.98
2022-08-14T04:56:10.370Z,10.93
2022-08-14T04:58:39.015Z,11.80
2022-08-14T05:01:12.761Z,11.00
2022-08-14T05:03:46.591Z,11.70
2022-08-14T05:06:38.241Z,11.98
2022-08-14T05:09:01.192Z,10.27
2022-08-14T05:11:28.194Z,9.95
2022-08-14T05:14:42.914Z,10.23
2022-08-14T05:16:46.609Z,8.90
2022-08-14T05:19:25.203Z,8.38
2022-08-14T05:22:16.686Z,7.68
2022-08-14T05:24:50.591Z,7.07
2022-08-14T05:27:23.130Z,6.72
2022-08-14T05:29:56.861Z,6.63
2022-08-14T05:32:27.819Z,7.78
2022-08-14T05:34:58.300Z,8.30
2022-08-14T05:37:28.074Z,9.27
2022-08-14T05:39:55.493Z,8.80
2022-08-14T05:42:29.024Z,8.90
2022-08-14T05:44:59.201Z,10.23
2022-08-14T05:47:28.685Z,10.45
2022-08-14T05:50:01.845Z,11.00
2022-08-14T05:52:38.750Z,11.05
2022-08-14T05:55:11.474Z,11.85
2022-08-14T05:57:54.182Z,12.30
2022-08-14T06:00:34.863Z,10.77
2022-08-14T06:03:08.828Z,12.40
2022-08-14T06:05:38.884Z,11.70
2022-08-14T06:08:31.151Z,14.32
2022-08-14T06:11:03.967Z,16.90
2022-08-14T06:13:44.887Z,14.38
2022-08-14T06:16:17.817Z,14.10
2022-08-14T06:18:52.911Z,11.27
2022-08-14T06:21:23.659Z,11.48
2022-08-14T06:23:51.410Z,12.05
2022-08-14T06:26:20.750Z,10.07
2022-08-14T06:28:52.082Z,10.48
2022-08-14T06:31:20.768Z,10.63
2022-08-14T06:35:09.354Z,9.30
2022-08-14T06:36:36.693Z,9.98
2022-08-14T06:39:03.857Z,10.63
2022-08-14T06:41:57.607Z,10.05
2022-08-14T06:44:30.426Z,8.88
2022-08-14T06:47:01.763Z,9.45
2022-08-14T06:49:30.261Z,10.40
2022-08-14T06:51:57.529Z,8.98
2022-08-14T06:54:31.193Z,9.45
2022-08-14T06:56:59.219Z,9.13
2022-08-14T06:59:26.389Z,11.70
2022-08-14T07:02:13.563Z,8.75
2022-08-14T07:05:05.296Z,8.02
2022-08-14T07:07:41.244Z,6.40
2022-08-14T07:10:17.022Z,6.35
2022-08-14T07:13:01.195Z,7.00
2022-08-14T07:15:33.618Z,6.35
2022-08-14T07:18:02.424Z,5.80
2022-08-14T07:20:31.701Z,5.53
2022-08-14T07:23:08.358Z,6.03
2022-08-14T07:25:42.070Z,5.38
2022-08-14T07:28:20.839Z,5.03
2022-08-14T07:30:51.122Z,4.55
2022-08-14T07:33:24.805Z,4.55
2022-08-14T07:35:59.335Z,5.07
2022-08-14T07:38:35.679Z,4.13
2022-08-14T07:41:11.623Z,4.55
2022-08-14T07:43:47.475Z,4.43
2022-08-14T07:46:28.272Z,4.57
2022-08-14T07:48:57.190Z,4.70
2022-08-14T07:51:24.631Z,5.28
2022-08-14T07:53:56.873Z,4.85
2022-08-14T07:56:48.238Z,5.10
2022-08-14T07:59:12.811Z,5.05
2022-08-14T08:01:48.448Z,4.93
2022-08-14T08:04:24.567Z,5.07
2022-08-14T08:06:53.428Z,4.43
2022-08-14T08:09:31.942Z,4.93
2022-08-14T08:12:04.538Z,4.13
2022-08-14T08:14:55.458Z,5.03
2022-08-14T08:17:24.646Z,3.42
2022-08-14T08:19:52.095Z,4.25
2022-08-14T08:22:21.317Z,4.30
2022-08-14T08:24:50.313Z,4.68
2022-08-14T08:27:21.366Z,4.10
2022-08-14T08:29:50.709Z,4.35
2022-08-14T08:32:18.930Z,4.68
2022-08-14T08:34:48.499Z,3.53
2022-08-14T08:37:16.694Z,3.58
2022-08-14T08:40:01.362Z,3.60
2022-08-14T08:42:41.176Z,3.70
2022-08-14T08:45:12.055Z,3.40
2022-08-14T08:47:40.995Z,3.70
2022-08-14T08:50:31.764Z,3.90
2022-08-14T08:53:06.268Z,3.78
2022-08-14T08:55:33.973Z,3.60
2022-08-14T08:58:16.513Z,3.33
2022-08-14T09:00:54.259Z,2.97
2022-08-14T09:03:25.656Z,3.00
2022-08-14T09:07:00.633Z,2.90
2022-08-14T09:08:53.280Z,3.13
2022-08-14T09:11:24.650Z,3.10
2022-08-14T09:13:54.549Z,3.00
2022-08-14T09:16:26.049Z,3.55
2022-08-14T09:18:54.752Z,3.00
2022-08-14T09:21:24.426Z,3.13
2022-08-14T09:24:29.193Z,3.30
2022-08-14T09:26:44.313Z,3.13
2022-08-14T09:29:22.756Z,3.30
2022-08-14T09:31:57.809Z,3.45
2022-08-14T09:34:58.815Z,3.58
2022-08-14T09:37:33.160Z,3.53
2022-08-14T09:40:29.844Z,2.95
2022-08-14T09:43:07.733Z,3.40
2022-08-14T09:45:53.022Z,3.75
2022-08-14T09:48:30.588Z,3.40
2022-08-14T09:54:12.853Z,4.05
2022-08-14T09:56:30.259Z,3.30
2022-08-14T10:01:37.395Z,2.95
2022-08-14T10:04:32.833Z,3.15
2022-08-14T10:07:08.584Z,2.55
2022-08-14T10:09:59.791Z,2.83
2022-08-14T10:12:50.209Z,2.63
2022-08-14T10:15:25.409Z,2.40
2022-08-14T10:18:08.153Z,28.85
2022-08-14T10:20:42.598Z,4.65
2022-08-14T10:23:23.361Z,2.50
2022-08-14T10:25:54.382Z,2.40
2022-08-14T10:28:39.009Z,2.35
2022-08-14T10:33:46.896Z,2.38
2022-08-14T10:39:05.630Z,2.30
2022-08-14T10:41:46.594Z,2.78
2022-08-14T10:44:21.645Z,2.42
2022-08-14T10:47:41.176Z,2.22
2022-08-14T10:49:50.101Z,2.10
2022-08-14T10:52:25.896Z,2.20
2022-08-14T10:54:56.279Z,2.10
2022-08-14T10:57:28.040Z,2.03
2022-08-14T11:00:01.860Z,2.15
2022-08-14T11:02:45.153Z,2.00
2022-08-14T11:05:19.426Z,2.80
2022-08-14T11:07:56.423Z,9.77
2022-08-14T11:10:28.030Z,3.65
2022-08-14T11:12:57.735Z,4.13
2022-08-14T11:15:27.825Z,1.92
2022-08-14T11:17:56.496Z,2.05
2022-08-14T11:20:30.803Z,2.08
2022-08-14T11:23:00.723Z,1.90
2022-08-14T11:25:43.871Z,1.92
2022-08-14T11:28:48.556Z,1.77
2022-08-14T11:31:13.283Z,1.88
2022-08-14T11:33:41.624Z,1.80
2022-08-14T11:36:18.281Z,1.98
2022-08-14T11:38:46.922Z,1.98
2022-08-14T11:41:18.393Z,1.80
2022-08-14T11:43:58.217Z,2.20
2022-08-14T11:46:30.716Z,2.40
2022-08-14T11:49:06.180Z,2.00
2022-08-14T11:51:35.966Z,2.20
2022-08-14T11:54:06.421Z,5.38
2022-08-14T11:56:37.290Z,2.05
2022-08-14T11:59:06.914Z,2.13
2022-08-14T12:01:38.074Z,2.00
2022-08-14T12:04:21.821Z,2.30
2022-08-14T12:07:00.975Z,1.90
2022-08-14T12:09:38.778Z,2.17
2022-08-14T12:12:36.234Z,1.85
2022-08-14T12:15:05.495Z,2.08
2022-08-14T12:17:49.583Z,2.00
2022-08-14T12:20:29.826Z,2.13
2022-08-14T12:23:05.580Z,1.90
2022-08-14T12:25:35.045Z,1.90
2022-08-14T12:28:10.369Z,2.10
2022-08-14T12:30:56.699Z,2.13
2022-08-14T12:33:31.261Z,2.30
2022-08-14T12:36:04.683Z,2.00
2022-08-14T12:38:44.202Z,2.10
2022-08-14T12:41:23.990Z,2.10
2022-08-14T12:44:16.030Z,3.90
2022-08-14T12:46:47.685Z,4.25
2022-08-14T12:49:18.918Z,4.28
2022-08-14T12:51:57.764Z,4.32
2022-08-14T12:54:28.197Z,4.82
2022-08-14T12:57:14.629Z,5.40
2022-08-14T12:59:46.241Z,5.30
2022-08-14T13:02:26.118Z,6.32
2022-08-14T13:04:55.787Z,6.15
2022-08-14T13:07:26.467Z,5.40
2022-08-14T13:09:59.333Z,5.53
2022-08-14T13:12:39.825Z,5.18
2022-08-14T13:15:19.627Z,4.00
2022-08-14T13:17:51.943Z,4.78
2022-08-14T13:20:26.594Z,5.63
2022-08-14T13:22:56.206Z,6.18
2022-08-14T13:25:26.290Z,4.75
2022-08-14T13:27:59.464Z,5.10
2022-08-14T13:30:27.176Z,6.15
2022-08-14T13:32:57.995Z,6.20
2022-08-14T13:35:25.773Z,5.90
2022-08-14T13:37:53.481Z,4.78
2022-08-14T13:40:26.362Z,5.45
2022-08-14T13:42:56.786Z,3.95
2022-08-14T13:45:59.588Z,4.53
2022-08-14T13:48:30.673Z,5.05
2022-08-14T13:51:02.096Z,4.47
2022-08-14T13:53:34.912Z,4.28
2022-08-14T13:58:35.651Z,4.32
2022-08-14T14:01:04.286Z,4.45
2022-08-14T14:03:38.049Z,4.78
2022-08-14T14:06:07.073Z,4.03
2022-08-14T14:08:45.599Z,5.22
2022-08-14T14:11:19.456Z,4.63
2022-08-14T14:13:48.282Z,5.22
2022-08-14T14:16:26.122Z,5.22
2022-08-14T14:19:08.994Z,5.50
2022-08-14T14:21:37.895Z,5.78
2022-08-14T14:24:07.763Z,5.75
2022-08-14T14:26:36.158Z,6.18
2022-08-14T14:29:06.226Z,6.07
2022-08-14T14:31:38.882Z,6.15
2022-08-14T14:34:29.752Z,6.20
2022-08-14T14:37:04.393Z,5.45
2022-08-14T14:39:35.158Z,5.80
2022-08-14T14:42:06.542Z,5.97
2022-08-14T14:44:40.298Z,6.78
2022-08-14T14:47:11.856Z,6.18
2022-08-14T14:49:51.293Z,6.22
2022-08-14T14:52:27.760Z,6.28
2022-08-14T14:54:58.390Z,5.40
2022-08-14T14:57:35.201Z,6.00
2022-08-14T15:00:23.429Z,5.80
2022-08-14T15:02:53.362Z,5.57
2022-08-14T15:05:28.522Z,6.47
2022-08-14T15:07:55.828Z,6.47
2022-08-14T15:10:28.324Z,6.75
2022-08-14T15:13:03.767Z,6.28
2022-08-14T15:15:33.126Z,6.20
2022-08-14T15:18:01.218Z,6.55
2022-08-14T15:20:30.605Z,6.10
2022-08-14T15:23:12.059Z,5.82
2022-08-14T15:25:41.361Z,5.40
2022-08-14T15:28:11.667Z,5.20
2022-08-14T15:30:50.930Z,5.35
2022-08-14T15:34:33.173Z,5.35
2022-08-14T15:36:31.310Z,5.22
2022-08-14T15:38:59.529Z,5.78
2022-08-14T15:41:27.004Z,5.50
2022-08-14T15:44:01.605Z,5.93
2022-08-14T15:46:42.816Z,6.43
2022-08-14T15:49:11.001Z,6.93
2022-08-14T15:51:42.420Z,7.70
2022-08-14T15:54:11.334Z,7.90
2022-08-14T15:56:43.163Z,9.07
2022-08-14T15:59:13.299Z,10.40
2022-08-14T16:01:54.358Z,10.27
2022-08-14T16:04:23.778Z,9.98
2022-08-14T16:06:51.766Z,10.68
2022-08-14T16:09:22.058Z,8.82
2022-08-14T16:11:53.354Z,9.30
2022-08-14T16:14:22.073Z,8.63
2022-08-14T16:17:00.764Z,7.75
2022-08-14T16:19:33.151Z,8.68
2022-08-14T16:22:58.778Z,7.90
2022-08-14T16:25:03.149Z,7.53
2022-08-14T16:27:39.136Z,7.65
2022-08-14T16:30:24.542Z,6.43
2022-08-14T16:32:57.320Z,6.13
2022-08-14T16:35:43.140Z,6.10
2022-08-14T16:38:44.827Z,5.70
2022-08-14T16:41:23.418Z,6.70
2022-08-14T16:44:13.913Z,5.97
2022-08-14T16:46:57.223Z,4.75
2022-08-14T16:50:03.525Z,4.80
2022-08-14T16:52:25.814Z,5.47
2022-08-14T16:55:05.202Z,6.40
2022-08-14T16:57:34.317Z,4.68
2022-08-14T17:00:07.129Z,4.60
2022-08-14T17:02:47.490Z,4.50
2022-08-14T17:05:17.978Z,4.47
2022-08-14T17:08:28.620Z,4.15
2022-08-14T17:10:51.573Z,4.22
2022-08-14T17:13:57.760Z,4.18
2022-08-14T17:16:25.334Z,4.20
2022-08-14T17:19:00.816Z,4.65
2022-08-14T17:21:38.154Z,4.10
2022-08-14T17:24:56.789Z,4.10
2022-08-14T17:27:04.033Z,3.70
2022-08-14T17:29:34.847Z,4.18
2022-08-14T17:32:21.918Z,3.75
2022-08-14T17:34:57.723Z,3.80
2022-08-14T17:37:39.253Z,4.60
2022-08-14T17:40:16.775Z,4.22
2022-08-14T17:42:51.317Z,3.72
2022-08-14T17:45:26.884Z,4.10
2022-08-14T17:47:59.310Z,4.07
2022-08-14T17:51:00.564Z,4.47
2022-08-14T17:53:30.628Z,4.53
2022-08-14T17:56:01.170Z,4.25
2022-08-14T17:58:38.540Z,4.05
2022-08-14T18:01:13.817Z,4.43
2022-08-14T18:03:50.749Z,4.43
2022-08-14T18:06:39.754Z,4.53
2022-08-14T18:09:25.347Z,4.38
2022-08-14T18:11:55.329Z,4.47
2022-08-14T18:14:32.742Z,4.75
2022-08-14T18:17:12.290Z,4.60
2022-08-14T18:19:45.064Z,4.53
2022-08-14T18:22:23.905Z,4.38
2022-08-14T18:25:02.172Z,4.85
2022-08-14T18:27:41.661Z,4.68
2022-08-14T18:30:36.330Z,4.22
2022-08-14T18:33:12.759Z,4.30
2022-08-14T18:35:59.138Z,4.57
2022-08-14T18:38:59.777Z,4.50
2022-08-14T18:41:36.107Z,4.50
2022-08-14T18:44:11.053Z,4.50
2022-08-14T18:47:06.314Z,4.72
2022-08-14T18:49:55.150Z,4.00
2022-08-14T18:52:39.309Z,4.53
2022-08-14T18:55:16.724Z,4.65
2022-08-14T18:57:59.291Z,4.60
2022-08-14T19:00:32.712Z,4.82
2022-08-14T19:03:01.620Z,4.82
2022-08-14T19:05:37.975Z,4.25
2022-08-14T19:08:18.644Z,4.18
2022-08-14T19:10:57.307Z,4.85
2022-08-14T19:13:48.559Z,4.78
2022-08-14T19:16:26.092Z,4.88
2022-08-14T19:19:00.086Z,4.80
2022-08-14T19:21:34.581Z,5.10
2022-08-14T19:24:07.805Z,5.22
2022-08-14T19:27:23.939Z,4.70
2022-08-14T19:30:20.196Z,5.35
2022-08-14T19:32:53.049Z,4.70
2022-08-14T19:35:49.467Z,4.85
2022-08-14T19:38:46.410Z,5.30
2022-08-14T19:41:19.375Z,4.53
2022-08-14T19:43:55.132Z,6.80
2022-08-14T19:46:37.775Z,6.00
2022-08-14T19:49:23.248Z,5.93
2022-08-14T19:52:02.730Z,5.63
2022-08-14T19:54:32.541Z,5.00
2022-08-14T19:57:03.196Z,5.13
2022-08-14T19:59:36.782Z,4.68
2022-08-14T20:02:29.977Z,5.00
2022-08-14T20:04:59.581Z,4.78
2022-08-14T20:08:00.482Z,4.60
2022-08-14T20:11:05.839Z,4.22
2022-08-14T20:13:32.024Z,4.50
2022-08-14T20:16:07.078Z,4.38
2022-08-14T20:18:50.725Z,4.93
2022-08-14T20:21:21.415Z,4.60
2022-08-14T20:23:49.384Z,4.80
2022-08-14T20:26:31.494Z,4.53
2022-08-14T20:29:05.267Z,4.95
2022-08-14T20:31:37.903Z,4.63
2022-08-14T20:34:19.142Z,4.70
2022-08-14T20:37:22.041Z,4.57
2022-08-14T20:39:54.820Z,4.82
2022-08-14T20:42:43.645Z,4.10
2022-08-14T20:45:21.681Z,3.60
2022-08-14T20:47:56.569Z,3.75
2022-08-14T20:50:28.757Z,3.70
2022-08-14T20:53:00.700Z,3.30
2022-08-14T20:55:41.748Z,3.22
2022-08-14T20:58:43.097Z,2.70
2022-08-14T21:01:13.958Z,2.47
2022-08-14T21:03:57.134Z,2.90
2022-08-14T21:06:30.202Z,2.58
2022-08-14T21:09:18.558Z,2.70
2022-08-14T21:12:02.656Z,2.45
2022-08-14T21:14:30.250Z,2.60
2022-08-14T21:16:59.219Z,2.70
2022-08-14T21:19:27.362Z,2.88
2022-08-14T21:21:56.798Z,2.78
2022-08-14T21:24:39.536Z,2.47
2022-08-14T21:27:20.047Z,2.80
2022-08-14T21:29:55.451Z,2.63
2022-08-14T21:32:35.079Z,2.30
2022-08-14T21:35:08.481Z,3.03
2022-08-14T21:37:44.071Z,2.95
2022-08-14T21:43:01.488Z,2.70
2022-08-14T21:45:28.365Z,2.55
2022-08-14T21:47:56.358Z,3.00
2022-08-14T21:50:39.500Z,2.90
2022-08-14T21:53:11.173Z,2.47
2022-08-14T21:55:38.060Z,2.20
2022-08-14T21:58:52.084Z,2.70
2022-08-14T22:00:54.242Z,2.28
2022-08-14T22:03:24.148Z,2.42
2022-08-14T22:05:56.059Z,2.60
2022-08-14T22:08:26.603Z,2.95
2022-08-14T22:10:55.564Z,2.42
2022-08-14T22:13:26.488Z,2.90
2022-08-14T22:15:59.618Z,2.65
2022-08-14T22:20:56.954Z,2.80
2022-08-14T22:23:25.884Z,2.92
2022-08-14T22:25:53.540Z,2.80
2022-08-14T22:28:25.166Z,2.95
2022-08-14T22:30:54.705Z,3.35
2022-08-14T22:33:26.606Z,2.53
2022-08-14T22:35:59.253Z,2.60
2022-08-14T22:38:37.657Z,2.88
2022-08-14T22:41:29.507Z,2.90
2022-08-14T22:43:59.245Z,2.95
2022-08-14T22:46:27.067Z,2.90
2022-08-14T22:48:54.746Z,3.28
2022-08-14T22:51:27.472Z,3.28
2022-08-14T22:53:55.938Z,2.95
2022-08-14T22:56:30.515Z,2.70
2022-08-14T22:59:03.178Z,3.50
2022-08-14T23:01:56.398Z,2.75
2022-08-14T23:04:35.823Z,3.20
2022-08-14T23:07:22.099Z,2.92
2022-08-14T23:10:32.398Z,3.10
2022-08-14T23:15:24.112Z,2.87
2022-08-14T23:17:51.241Z,2.50
2022-08-14T23:20:22.153Z,2.85
2022-08-14T23:22:53.198Z,2.92
2022-08-14T23:25:58.328Z,2.95
2022-08-14T23:28:34.471Z,2.60
2022-08-14T23:31:06.121Z,2.80
2022-08-14T23:33:45.787Z,3.38
2022-08-14T23:36:31.500Z,2.83
2022-08-14T23:39:07.099Z,3.00
2022-08-14T23:41:45.747Z,3.30
2022-08-14T23:44:20.509Z,3.00
2022-08-14T23:46:49.545Z,3.25
2022-08-14T23:49:21.192Z,3.22
2022-08-14T23:51:59.810Z,3.30
2022-08-14T23:54:49.022Z,3.10
2022-08-14T23:57:19.183Z,3.90
2022-08-14T23:59:54.924Z,3.15
